createdAt,value
2018-11-23T00:00:15.373Z,50.50
2018-11-23T00:02:44.844Z,50.40
2018-11-23T00:05:13.220Z,50.40
2018-11-23T00:07:42.221Z,50.40
2018-11-23T00:10:12.468Z,50.40
2018-11-23T00:12:40.752Z,50.50
2018-11-23T00:15:11.269Z,50.50
2018-11-23T00:17:39.641Z,50.50
2018-11-23T00:20:09.982Z,50.50
2018-11-23T00:22:38.307Z,50.50
2018-11-23T00:25:07.889Z,50.50
2018-11-23T00:27:36.252Z,50.40
2018-11-23T00:30:04.864Z,50.30
2018-11-23T00:32:33.174Z,50.30
2018-11-23T00:35:01.466Z,50.40
2018-11-23T00:37:29.773Z,50.50
2018-11-23T00:39:58.080Z,50.50
2018-11-23T00:42:26.386Z,50.40
2018-11-23T00:44:54.658Z,50.40
2018-11-23T00:47:22.955Z,50.40
2018-11-23T00:49:51.244Z,50.40
2018-11-23T00:52:19.546Z,50.40
2018-11-23T00:54:47.838Z,50.30
2018-11-23T00:57:16.170Z,50.60
2018-11-23T00:59:44.506Z,50.60
2018-11-23T01:02:12.846Z,50.50
2018-11-23T01:04:41.129Z,50.50
2018-11-23T01:07:09.426Z,50.40
2018-11-23T01:09:37.722Z,50.20
2018-11-23T01:12:06.040Z,50.20
2018-11-23T01:14:34.380Z,50.20
2018-11-23T01:17:02.660Z,50.50
2018-11-23T01:19:30.974Z,50.40
2018-11-23T01:21:59.808Z,50.40
2018-11-23T01:24:28.097Z,50.40
2018-11-23T01:26:56.386Z,50.40
2018-11-23T01:29:24.687Z,50.30
2018-11-23T01:31:53.328Z,50.20
2018-11-23T01:34:21.662Z,50.70
2018-11-23T01:36:49.976Z,50.60
2018-11-23T01:39:18.272Z,50.50
2018-11-23T01:41:46.602Z,50.50
2018-11-23T01:44:14.906Z,50.50
2018-11-23T01:46:43.232Z,50.50
2018-11-23T01:49:12.032Z,50.50
2018-11-23T01:51:39.916Z,50.50
2018-11-23T01:54:08.334Z,50.70
2018-11-23T01:56:36.644Z,51.30
2018-11-23T01:59:05.242Z,50.50
2018-11-23T02:01:33.539Z,50.50
2018-11-23T02:04:01.847Z,50.90
2018-11-23T02:06:30.158Z,50.40
2018-11-23T02:08:58.464Z,50.40
2018-11-23T02:11:26.806Z,50.30
2018-11-23T02:13:55.108Z,50.60
2018-11-23T02:16:23.407Z,50.50
2018-11-23T02:18:51.708Z,50.40
2018-11-23T02:21:20.029Z,50.40
2018-11-23T02:23:48.331Z,50.40
2018-11-23T02:26:16.628Z,50.30
2018-11-23T02:28:44.926Z,50.30
2018-11-23T02:31:13.204Z,50.60
2018-11-23T02:33:41.821Z,50.70
2018-11-23T02:36:10.836Z,50.60
2018-11-23T02:38:39.187Z,50.60
2018-11-23T02:41:07.483Z,50.50
2018-11-23T02:43:35.780Z,50.40
2018-11-23T02:46:04.088Z,50.30
2018-11-23T02:48:32.496Z,50.20
2018-11-23T02:51:01.457Z,50.50
2018-11-23T02:53:29.766Z,50.40
2018-11-23T02:55:58.048Z,50.30
2018-11-23T02:58:26.310Z,50.30
2018-11-23T03:00:54.580Z,50.40
2018-11-23T03:03:22.873Z,50.40
2018-11-23T03:05:51.165Z,50.50
2018-11-23T03:08:19.461Z,50.40
2018-11-23T03:10:47.750Z,50.70
2018-11-23T03:13:16.029Z,50.70
2018-11-23T03:15:44.360Z,50.60
2018-11-23T03:18:13.563Z,50.60
2018-11-23T03:20:41.838Z,50.50
2018-11-23T03:23:10.113Z,50.50
2018-11-23T03:25:38.403Z,50.40
2018-11-23T03:28:06.700Z,50.30
2018-11-23T03:30:34.989Z,50.60
2018-11-23T03:33:03.285Z,50.60
2018-11-23T03:35:31.578Z,50.50
2018-11-23T03:37:59.863Z,50.40
2018-11-23T03:40:28.161Z,50.40
2018-11-23T03:42:56.461Z,50.40
2018-11-23T03:45:24.726Z,50.30
2018-11-23T03:47:53.025Z,50.30
2018-11-23T03:50:21.317Z,50.50
2018-11-23T03:52:49.590Z,51.30
2018-11-23T03:55:17.919Z,50.80
2018-11-23T03:57:46.318Z,50.60
2018-11-23T04:00:17.669Z,50.50
2018-11-23T04:02:45.391Z,50.30
2018-11-23T04:05:13.689Z,50.10
2018-11-23T04:07:41.996Z,50.30
2018-11-23T04:10:12.026Z,50.60
2018-11-23T04:12:40.357Z,50.40
2018-11-23T04:15:09.075Z,50.30
2018-11-23T04:17:37.443Z,50.40
2018-11-23T04:20:07.107Z,50.40
2018-11-23T04:22:35.463Z,50.40
2018-11-23T04:25:03.831Z,50.30
2018-11-23T04:27:32.152Z,50.50
2018-11-23T04:30:00.417Z,50.50
2018-11-23T04:32:28.705Z,50.40
2018-11-23T04:34:56.994Z,50.40
2018-11-23T04:37:25.686Z,50.40
2018-11-23T04:39:59.280Z,50.30
2018-11-23T04:42:27.582Z,50.30
2018-11-23T04:44:55.903Z,50.20
2018-11-23T04:47:25.601Z,50.50
2018-11-23T04:49:53.933Z,50.50
2018-11-23T04:52:22.215Z,50.50
2018-11-23T04:54:50.531Z,50.50
2018-11-23T04:57:18.909Z,50.60
2018-11-23T04:59:47.196Z,50.60
2018-11-23T05:02:15.528Z,50.60
2018-11-23T05:04:43.857Z,50.80
2018-11-23T05:07:12.152Z,51.10
2018-11-23T05:09:40.448Z,50.90
2018-11-23T05:12:08.738Z,51.00
2018-11-23T05:14:37.065Z,51.10
2018-11-23T05:17:05.479Z,51.00
2018-11-23T05:19:34.106Z,51.70
2018-11-23T05:22:02.395Z,51.00
2018-11-23T05:24:30.672Z,51.10
2018-11-23T05:26:59.064Z,51.40
2018-11-23T05:29:27.437Z,51.30
2018-11-23T05:31:55.746Z,51.90
2018-11-23T05:34:24.061Z,51.30
2018-11-23T05:36:52.527Z,51.30
2018-11-23T05:39:20.825Z,51.30
2018-11-23T05:41:49.137Z,51.30
2018-11-23T05:44:17.450Z,51.50
2018-11-23T05:46:45.761Z,51.60
2018-11-23T05:49:14.083Z,51.90
2018-11-23T05:51:42.957Z,51.30
2018-11-23T05:54:11.265Z,51.50
2018-11-23T05:56:39.597Z,51.50
2018-11-23T05:59:07.945Z,51.50
2018-11-23T06:01:36.234Z,51.40
2018-11-23T06:04:04.674Z,51.50
2018-11-23T06:06:32.981Z,51.70
2018-11-23T06:09:01.280Z,51.70
2018-11-23T06:11:29.577Z,51.70
2018-11-23T06:13:57.868Z,51.80
2018-11-23T06:16:26.145Z,51.80
2018-11-23T06:18:54.479Z,51.90
2018-11-23T06:21:22.783Z,51.80
2018-11-23T06:23:51.081Z,52.00
2018-11-23T06:26:22.479Z,52.10
2018-11-23T06:28:50.841Z,52.10
2018-11-23T06:31:19.147Z,52.10
2018-11-23T06:33:48.167Z,52.10
2018-11-23T06:36:16.494Z,52.10
2018-11-23T06:38:44.802Z,52.10
2018-11-23T06:41:13.181Z,52.30
2018-11-23T06:43:41.504Z,52.40
2018-11-23T06:46:11.041Z,52.50
2018-11-23T06:48:39.333Z,52.10
2018-11-23T06:51:07.964Z,52.10
2018-11-23T06:53:36.265Z,52.00
2018-11-23T06:56:05.058Z,52.00
2018-11-23T06:58:33.956Z,51.90
2018-11-23T07:01:02.238Z,51.90
2018-11-23T07:03:30.534Z,52.00
2018-11-23T07:05:59.410Z,52.00
2018-11-23T07:08:27.691Z,52.00
2018-11-23T07:11:02.637Z,52.00
2018-11-23T07:13:31.741Z,51.90
2018-11-23T07:16:00.090Z,52.00
2018-11-23T07:18:28.575Z,51.90
2018-11-23T07:20:56.909Z,52.10
2018-11-23T07:23:25.230Z,52.20
2018-11-23T07:25:53.610Z,52.10
2018-11-23T07:28:21.863Z,52.10
2018-11-23T07:30:50.206Z,52.10
2018-11-23T07:33:18.489Z,52.10
2018-11-23T07:35:46.772Z,52.10
2018-11-23T07:38:15.114Z,52.10
2018-11-23T07:40:55.196Z,52.30
2018-11-23T07:43:23.571Z,52.30
2018-11-23T07:45:51.876Z,52.10
2018-11-23T07:48:20.164Z,52.10
2018-11-23T07:50:48.474Z,52.10
2018-11-23T07:53:16.779Z,52.00
2018-11-23T07:55:45.063Z,52.00
2018-11-23T07:58:13.368Z,51.90
2018-11-23T08:00:41.655Z,52.10
2018-11-23T08:03:09.911Z,52.20
2018-11-23T08:05:38.339Z,52.20
2018-11-23T08:08:06.757Z,52.90
2018-11-23T08:10:34.277Z,52.30
2018-11-23T08:13:02.585Z,52.20
2018-11-23T08:15:30.932Z,52.20
2018-11-23T08:17:59.255Z,52.20
2018-11-23T08:20:27.632Z,52.40
2018-11-23T08:22:56.789Z,52.40
2018-11-23T08:25:25.845Z,52.40
2018-11-23T08:27:55.341Z,53.00
2018-11-23T08:30:25.049Z,52.30
2018-11-23T08:32:53.552Z,52.30
2018-11-23T08:35:21.921Z,52.30
2018-11-23T08:37:50.262Z,52.40
2018-11-23T08:40:21.468Z,52.40
2018-11-23T08:42:50.665Z,52.30
2018-11-23T08:45:20.784Z,52.10
2018-11-23T08:47:49.131Z,52.10
2018-11-23T08:50:23.797Z,52.00
2018-11-23T08:52:52.161Z,52.50
2018-11-23T08:55:21.083Z,51.90
2018-11-23T08:57:49.382Z,52.00
2018-11-23T09:00:20.609Z,52.20
2018-11-23T09:02:50.217Z,52.10
2018-11-23T09:05:18.911Z,52.10
2018-11-23T09:07:48.117Z,52.10
2018-11-23T09:10:18.167Z,52.10
2018-11-23T09:12:49.179Z,52.00
2018-11-23T09:15:17.646Z,52.20
2018-11-23T09:17:46.062Z,52.40
2018-11-23T09:20:15.904Z,52.30
2018-11-23T09:22:44.177Z,52.30
2018-11-23T09:25:13.881Z,52.30
2018-11-23T09:27:42.165Z,52.30
2018-11-23T09:30:12.779Z,52.30
2018-11-23T09:32:41.396Z,52.30
2018-11-23T09:35:09.768Z,52.50
2018-11-23T09:37:38.716Z,52.50
2018-11-23T09:40:09.412Z,52.30
2018-11-23T09:42:38.089Z,52.10
2018-11-23T09:45:08.533Z,52.30
2018-11-23T09:47:36.851Z,52.30
2018-11-23T09:50:07.555Z,52.20
2018-11-23T09:52:35.875Z,52.20
2018-11-23T09:55:04.736Z,52.40
2018-11-23T09:57:33.056Z,52.50
2018-11-23T10:00:01.327Z,52.50
2018-11-23T10:02:29.701Z,52.50
2018-11-23T10:04:58.057Z,52.60
2018-11-23T10:07:26.392Z,52.70
2018-11-23T10:09:54.675Z,52.40
2018-11-23T10:12:22.991Z,52.70
2018-11-23T10:14:51.427Z,52.70
2018-11-23T10:17:19.731Z,52.70
2018-11-23T10:19:48.013Z,52.70
2018-11-23T10:22:16.314Z,52.60
2018-11-23T10:24:45.150Z,52.30
2018-11-23T10:27:13.439Z,52.50
2018-11-23T10:29:41.721Z,52.50
2018-11-23T10:32:10.013Z,52.60
2018-11-23T10:34:38.327Z,52.60
2018-11-23T10:37:06.614Z,52.30
2018-11-23T10:39:34.928Z,52.50
2018-11-23T10:42:03.209Z,52.00
2018-11-23T10:44:31.521Z,52.40
2018-11-23T10:46:59.871Z,52.30
2018-11-23T10:49:28.157Z,52.40
2018-11-23T10:51:56.514Z,52.60
2018-11-23T10:54:24.825Z,52.50
2018-11-23T10:56:53.131Z,52.50
2018-11-23T10:59:21.434Z,52.50
2018-11-23T11:01:55.181Z,52.50
2018-11-23T11:04:28.824Z,52.50
2018-11-23T11:07:01.333Z,52.50
2018-11-23T11:09:29.985Z,52.70
2018-11-23T11:11:58.289Z,52.50
2018-11-23T11:14:26.609Z,52.70
2018-11-23T11:16:54.935Z,52.70
2018-11-23T11:19:23.223Z,52.70
2018-11-23T11:21:51.525Z,52.60
2018-11-23T11:24:19.805Z,52.50
2018-11-23T11:26:48.161Z,52.60
2018-11-23T11:29:16.481Z,52.70
2018-11-23T11:31:44.824Z,52.70
2018-11-23T11:34:13.152Z,52.70
2018-11-23T11:36:41.501Z,52.70
2018-11-23T11:39:11.458Z,52.70
2018-11-23T11:41:39.847Z,52.70
2018-11-23T11:44:08.156Z,53.40
2018-11-23T11:46:36.496Z,52.90
2018-11-23T11:49:05.176Z,52.90
2018-11-23T11:51:33.487Z,52.70
2018-11-23T11:54:01.828Z,52.80
2018-11-23T11:56:30.155Z,52.80
2018-11-23T11:58:58.464Z,52.80
2018-11-23T12:01:27.215Z,52.90
2018-11-23T12:03:56.098Z,52.70
2018-11-23T12:06:24.438Z,52.90
2018-11-23T12:08:52.753Z,52.90
2018-11-23T12:11:21.236Z,52.90
2018-11-23T12:13:49.557Z,52.90
2018-11-23T12:16:17.905Z,52.80
2018-11-23T12:18:46.324Z,52.80
2018-11-23T12:21:14.632Z,52.80
2018-11-23T12:23:43.260Z,52.90
2018-11-23T12:26:11.580Z,53.00
2018-11-23T12:28:39.919Z,52.80
2018-11-23T12:31:08.280Z,52.80
2018-11-23T12:33:36.630Z,52.80
2018-11-23T12:36:05.121Z,52.80
2018-11-23T12:38:33.430Z,52.80
2018-11-23T12:41:01.751Z,52.80
2018-11-23T12:43:30.067Z,52.90
2018-11-23T12:45:58.383Z,52.80
2018-11-23T12:48:26.720Z,52.90
2018-11-23T12:50:55.079Z,52.90
2018-11-23T12:53:23.406Z,52.80
2018-11-23T12:55:51.753Z,52.90
2018-11-23T12:58:20.052Z,52.80
2018-11-23T13:00:48.380Z,52.80
2018-11-23T13:03:17.176Z,52.90
2018-11-23T13:05:45.485Z,53.00
2018-11-23T13:08:13.921Z,52.90
2018-11-23T13:10:43.070Z,52.90
2018-11-23T13:13:10.580Z,53.00
2018-11-23T13:15:38.884Z,52.90
2018-11-23T13:18:07.242Z,52.90
2018-11-23T13:20:35.562Z,52.90
2018-11-23T13:23:03.896Z,53.00
2018-11-23T13:25:33.119Z,53.00
2018-11-23T13:28:01.518Z,53.00
2018-11-23T13:30:34.897Z,53.00
2018-11-23T13:33:03.214Z,53.00
2018-11-23T13:35:31.633Z,53.00
2018-11-23T13:38:00.272Z,53.10
2018-11-23T13:40:29.284Z,53.20
2018-11-23T13:42:58.526Z,53.30
2018-11-23T13:45:29.375Z,53.20
2018-11-23T13:47:57.850Z,53.20
2018-11-23T13:50:26.882Z,53.00
2018-11-23T13:52:57.803Z,52.90
2018-11-23T13:55:26.126Z,52.80
2018-11-23T13:57:54.517Z,52.80
2018-11-23T14:00:25.205Z,52.80
2018-11-23T14:02:54.462Z,52.90
2018-11-23T14:05:24.194Z,52.70
2018-11-23T14:07:54.002Z,52.60
2018-11-23T14:10:23.470Z,52.70
2018-11-23T14:12:51.875Z,52.70
2018-11-23T14:15:22.367Z,52.80
2018-11-23T14:17:51.584Z,52.80
2018-11-23T14:20:20.686Z,52.90
2018-11-23T14:22:49.058Z,53.10
2018-11-23T14:25:18.782Z,52.90
2018-11-23T14:27:47.565Z,53.00
2018-11-23T14:30:18.347Z,52.90
2018-11-23T14:32:47.010Z,52.90
2018-11-23T14:35:19.804Z,52.90
2018-11-23T14:37:48.964Z,52.80
2018-11-23T14:40:17.498Z,52.90
2018-11-23T14:42:46.903Z,53.00
2018-11-23T14:45:21.816Z,53.00
2018-11-23T14:47:51.442Z,53.00
2018-11-23T14:50:22.410Z,53.00
2018-11-23T14:52:51.681Z,53.00
2018-11-23T14:55:20.352Z,53.00
2018-11-23T14:57:48.894Z,53.00
2018-11-23T15:00:23.583Z,53.10
2018-11-23T15:02:53.138Z,53.10
2018-11-23T15:05:21.594Z,53.00
2018-11-23T15:07:50.031Z,53.00
2018-11-23T15:10:19.682Z,53.80
2018-11-23T15:12:49.155Z,53.10
2018-11-23T15:15:19.734Z,53.10
2018-11-23T15:17:49.155Z,53.20
2018-11-23T15:20:20.790Z,53.20
2018-11-23T15:22:50.832Z,53.00
2018-11-23T15:25:19.154Z,53.00
2018-11-23T15:27:47.601Z,53.00
2018-11-23T15:30:19.029Z,53.00
2018-11-23T15:32:53.666Z,52.90
2018-11-23T15:35:22.094Z,53.00
2018-11-23T15:37:50.787Z,53.20
2018-11-23T15:40:21.607Z,53.10
2018-11-23T15:42:51.128Z,53.10
2018-11-23T15:45:25.900Z,53.00
2018-11-23T15:47:56.118Z,53.10
2018-11-23T15:50:26.307Z,53.10
2018-11-23T15:52:54.889Z,53.10
2018-11-23T15:55:25.805Z,53.20
2018-11-23T15:57:55.880Z,53.20
2018-11-23T16:00:26.663Z,53.10
2018-11-23T16:02:55.680Z,52.90
2018-11-23T16:05:24.450Z,53.20
2018-11-23T16:07:54.649Z,53.10
2018-11-23T16:10:31.120Z,52.90
2018-11-23T16:13:00.816Z,53.10
2018-11-23T16:15:40.932Z,53.20
2018-11-23T16:18:18.512Z,53.20
2018-11-23T16:20:47.324Z,53.20
2018-11-23T16:23:17.174Z,53.20
2018-11-23T16:25:46.144Z,53.20
2018-11-23T16:28:18.968Z,53.00
2018-11-23T16:30:49.060Z,53.20
2018-11-23T16:33:19.240Z,53.30
2018-11-23T16:35:47.752Z,53.20
2018-11-23T16:38:18.093Z,53.30
2018-11-23T16:40:48.338Z,53.30
2018-11-23T16:43:16.883Z,53.10
2018-11-23T16:45:45.842Z,53.10
2018-11-23T16:48:14.911Z,53.00
2018-11-23T16:50:43.906Z,53.20
2018-11-23T16:53:12.588Z,53.30
2018-11-23T16:55:41.426Z,53.20
2018-11-23T16:58:11.932Z,53.20
2018-11-23T17:00:43.135Z,53.70
2018-11-23T17:03:13.571Z,53.20
2018-11-23T17:05:44.578Z,53.10
2018-11-23T17:08:13.122Z,53.30
2018-11-23T17:10:41.911Z,52.90
2018-11-23T17:13:10.405Z,52.50
2018-11-23T17:15:38.962Z,52.60
2018-11-23T17:18:07.435Z,52.50
2018-11-23T17:20:36.656Z,52.50
2018-11-23T17:23:11.034Z,52.50
2018-11-23T17:25:39.624Z,52.20
2018-11-23T17:28:09.364Z,52.50
2018-11-23T17:30:38.323Z,53.30
2018-11-23T17:33:07.048Z,52.60
2018-11-23T17:35:35.877Z,52.70
2018-11-23T17:38:04.617Z,52.70
2018-11-23T17:40:36.830Z,52.70
2018-11-23T17:43:05.495Z,52.70
2018-11-23T17:45:34.378Z,52.50
2018-11-23T17:48:02.875Z,52.40
2018-11-23T17:50:32.751Z,52.60
2018-11-23T17:53:01.444Z,52.50
2018-11-23T17:55:30.131Z,52.30
2018-11-23T17:57:58.955Z,52.20
2018-11-23T18:00:29.763Z,52.10
2018-11-23T18:03:00.431Z,51.90
2018-11-23T18:05:29.926Z,52.10
2018-11-23T18:07:59.293Z,51.90
2018-11-23T18:10:31.875Z,51.80
2018-11-23T18:13:00.987Z,51.70
2018-11-23T18:15:31.607Z,51.70
2018-11-23T18:18:01.239Z,51.70
2018-11-23T18:20:31.408Z,51.60
2018-11-23T18:23:00.547Z,51.70
2018-11-23T18:25:31.440Z,51.80
2018-11-23T18:28:02.096Z,51.80
2018-11-23T18:30:33.212Z,52.20
2018-11-23T18:33:04.947Z,52.20
2018-11-23T18:35:33.284Z,52.20
2018-11-23T18:38:01.637Z,52.30
2018-11-23T18:40:37.140Z,52.20
2018-11-23T18:42:58.536Z,53.10
2018-11-23T18:45:26.893Z,52.60
2018-11-23T18:47:55.254Z,52.60
2018-11-23T18:50:23.611Z,52.60
2018-11-23T18:52:52.970Z,52.50
2018-11-23T18:55:21.336Z,52.50
2018-11-23T18:57:49.671Z,52.50
2018-11-23T19:00:18.045Z,52.60
2018-11-23T19:02:48.806Z,52.70
2018-11-23T19:05:20.145Z,52.60
2018-11-23T19:07:48.503Z,52.60
2018-11-23T19:10:16.897Z,52.70
2018-11-23T19:12:45.269Z,52.70
2018-11-23T19:15:14.470Z,52.60
2018-11-23T19:17:43.409Z,52.50
2018-11-23T19:20:13.010Z,52.60
2018-11-23T19:22:42.330Z,52.80
2018-11-23T19:25:14.555Z,52.80
2018-11-23T19:27:42.978Z,52.80
2018-11-23T19:30:12.776Z,52.80
2018-11-23T19:32:41.592Z,53.10
2018-11-23T19:35:15.271Z,52.70
2018-11-23T19:37:43.755Z,52.80
2018-11-23T19:40:13.926Z,52.90
2018-11-23T19:42:43.001Z,52.70
2018-11-23T19:45:14.390Z,52.70
2018-11-23T19:47:43.800Z,52.90
2018-11-23T19:50:15.199Z,52.90
2018-11-23T19:52:43.636Z,53.30
2018-11-23T19:55:13.287Z,52.80
2018-11-23T19:57:41.735Z,53.00
2018-11-23T20:00:26.539Z,53.00
2018-11-23T20:02:54.954Z,53.00
2018-11-23T20:05:24.120Z,53.00
2018-11-23T20:07:55.170Z,53.00
2018-11-23T20:10:24.150Z,53.00
2018-11-23T20:12:54.977Z,52.90
2018-11-23T20:15:23.897Z,53.00
2018-11-23T20:17:53.214Z,53.10
2018-11-23T20:20:21.628Z,53.00
2018-11-23T20:22:50.815Z,53.00
2018-11-23T20:25:20.081Z,53.00
2018-11-23T20:27:49.721Z,53.00
2018-11-23T20:30:19.580Z,52.90
2018-11-23T20:32:48.039Z,52.90
2018-11-23T20:35:20.600Z,52.90
2018-11-23T20:37:49.037Z,53.10
2018-11-23T20:40:19.653Z,53.10
2018-11-23T20:42:48.112Z,53.10
2018-11-23T20:45:16.538Z,53.10
2018-11-23T20:47:44.934Z,53.10
2018-11-23T20:50:15.157Z,53.00
2018-11-23T20:52:43.567Z,53.10
2018-11-23T20:55:16.092Z,53.20
2018-11-23T20:57:44.514Z,53.00
2018-11-23T21:00:13.951Z,53.20
2018-11-23T21:02:42.545Z,53.80
2018-11-23T21:05:12.068Z,53.10
2018-11-23T21:07:40.489Z,53.10
2018-11-23T21:10:19.641Z,53.00
2018-11-23T21:12:40.523Z,53.10
2018-11-23T21:15:18.780Z,53.20
2018-11-23T21:17:48.149Z,53.10
2018-11-23T21:20:16.577Z,53.20
2018-11-23T21:22:44.985Z,53.20
2018-11-23T21:25:13.416Z,53.20
2018-11-23T21:27:41.918Z,53.00
2018-11-23T21:30:13.615Z,53.10
2018-11-23T21:32:42.629Z,53.30
2018-11-23T21:35:11.597Z,53.30
2018-11-23T21:37:39.995Z,53.30
2018-11-23T21:40:13.393Z,53.20
2018-11-23T21:42:41.754Z,53.20
2018-11-23T21:45:15.152Z,53.30
2018-11-23T21:47:43.513Z,53.50
2018-11-23T21:50:16.733Z,53.70
2018-11-23T21:52:45.137Z,53.70
2018-11-23T21:55:14.823Z,53.60
2018-11-23T21:57:43.154Z,53.30
2018-11-23T22:00:13.500Z,54.10
2018-11-23T22:02:41.942Z,53.50
2018-11-23T22:05:10.370Z,53.30
2018-11-23T22:07:38.737Z,53.30
2018-11-23T22:10:13.108Z,53.50
2018-11-23T22:12:41.579Z,53.50
2018-11-23T22:15:12.301Z,54.10
2018-11-23T22:17:40.629Z,53.30
2018-11-23T22:20:11.331Z,53.30
2018-11-23T22:22:39.721Z,53.40
2018-11-23T22:25:13.290Z,53.20
2018-11-23T22:27:41.729Z,53.40
2018-11-23T22:30:13.581Z,53.40
2018-11-23T22:32:41.901Z,53.40
2018-11-23T22:35:11.223Z,53.40
2018-11-23T22:37:39.606Z,53.40
2018-11-23T22:40:10.371Z,53.40
2018-11-23T22:42:38.800Z,53.30
2018-11-23T22:45:08.788Z,53.50
2018-11-23T22:47:37.127Z,53.70
2018-11-23T22:50:07.673Z,53.50
2018-11-23T22:52:35.973Z,53.30
2018-11-23T22:55:04.329Z,53.40
2018-11-23T22:57:32.681Z,53.30
2018-11-23T23:00:00.995Z,53.20
2018-11-23T23:02:29.305Z,53.30
2018-11-23T23:04:57.691Z,53.40
2018-11-23T23:07:25.965Z,53.40
2018-11-23T23:09:54.289Z,53.50
2018-11-23T23:12:22.674Z,53.40
2018-11-23T23:14:50.982Z,53.50
2018-11-23T23:17:19.291Z,54.10
2018-11-23T23:19:47.696Z,53.40
2018-11-23T23:22:16.014Z,53.50
2018-11-23T23:24:45.643Z,53.60
2018-11-23T23:27:13.940Z,54.10
2018-11-23T23:29:42.237Z,53.60
2018-11-23T23:32:10.543Z,53.50
2018-11-23T23:34:38.830Z,53.60
2018-11-23T23:37:07.127Z,53.60
2018-11-23T23:39:35.435Z,53.60
2018-11-23T23:42:03.728Z,53.80
2018-11-23T23:44:32.006Z,53.80
2018-11-23T23:47:00.315Z,53.70
2018-11-23T23:49:28.624Z,53.50
2018-11-23T23:51:56.911Z,53.50
2018-11-23T23:54:25.205Z,53.50
2018-11-23T23:56:53.526Z,53.50
2018-11-23T23:59:22.361Z,53.50
